Terminal Aerodrome Forecast
Issued by NWS Wilmington, OH

Current Version | Previous Version | Graphics & Text | Print | Product List | Glossary On
Versions: 1 2 3 4 5 6 7 8 9 10 11 12 13 14 15 16 17
052
FTUS41 KILN 220905 AAA
TAFDAY
TAF AMD
KDAY 220905Z 2209/2306 21007KT 5SM BR OVC004
      TEMPO 2212/2214 SCT008 BKN015
     FM221400 24006KT P6SM SCT015 BKN035
     FM221700 24008KT P6SM VCTS BKN040CB
     FM222100 27010KT P6SM VCTS BKN050CB
     FM230000 32006KT P6SM BKN100=

USA.gov is the U.S. government's official web portal to all federal, state and local government web resources and services.